createdAt,value
2023-04-28T00:13:45.719Z,16.30
2023-04-28T00:18:42.421Z,16.20
2023-04-28T00:21:10.613Z,16.50
2023-04-28T00:23:38.795Z,16.70
2023-04-28T00:26:06.978Z,16.70
2023-04-28T00:28:35.279Z,16.50
2023-04-28T00:43:46.984Z,16.50
2023-04-28T00:46:24.099Z,16.20
2023-04-28T00:48:52.637Z,16.40
2023-04-28T00:51:21.282Z,16.40
2023-04-28T00:53:49.919Z,16.30
2023-04-28T00:56:18.407Z,16.40
2023-04-28T00:58:46.659Z,16.30
2023-04-28T01:01:16.249Z,16.50
2023-04-28T01:03:44.860Z,16.50
2023-04-28T01:06:14.961Z,16.30
2023-04-28T01:08:43.981Z,16.20
2023-04-28T01:11:14.281Z,16.00
2023-04-28T01:13:42.686Z,16.00
2023-04-28T01:16:11.223Z,16.20
2023-04-28T01:18:43.985Z,16.30
2023-04-28T01:21:12.207Z,16.30
2023-04-28T01:23:40.538Z,16.30
2023-04-28T01:26:10.116Z,16.20
2023-04-28T01:28:38.356Z,16.00
2023-04-28T01:38:34.165Z,15.70
2023-04-28T01:41:03.283Z,16.10
2023-04-28T01:43:32.932Z,16.20
2023-04-28T01:46:01.218Z,16.30
2023-04-28T01:48:29.509Z,16.30
2023-04-28T01:50:57.736Z,16.20
2023-04-28T01:53:26.083Z,16.30
2023-04-28T01:55:55.372Z,16.40
2023-04-28T01:58:23.616Z,16.40
2023-04-28T02:00:53.196Z,16.20
2023-04-28T02:03:21.778Z,16.20
2023-04-28T02:05:50.211Z,16.00
2023-04-28T02:08:18.532Z,16.00
2023-04-28T02:10:46.770Z,15.80
2023-04-28T02:13:14.968Z,16.10
2023-04-28T02:15:43.713Z,16.30
2023-04-28T02:18:13.386Z,16.20
2023-04-28T02:20:41.973Z,16.30
2023-04-28T02:23:10.591Z,16.40
2023-04-28T02:25:38.868Z,16.50
2023-04-28T02:28:07.214Z,16.50
2023-04-28T02:30:35.473Z,16.60
2023-04-28T02:33:03.870Z,16.60
2023-04-28T02:35:33.506Z,16.70
2023-04-28T02:38:01.729Z,16.70
2023-04-28T02:40:30.038Z,16.70
2023-04-28T02:42:58.284Z,16.70
2023-04-28T02:45:26.665Z,16.60
2023-04-28T02:47:54.973Z,16.40
2023-04-28T02:50:23.485Z,16.30
2023-04-28T02:52:53.091Z,16.20
2023-04-28T02:55:24.310Z,16.10
2023-04-28T02:57:52.956Z,16.20
2023-04-28T03:00:21.620Z,16.20
2023-04-28T03:02:49.972Z,16.20
2023-04-28T03:05:18.415Z,16.20
2023-04-28T03:07:46.867Z,16.30
2023-04-28T03:10:16.546Z,16.20
2023-04-28T03:12:44.828Z,16.30
2023-04-28T03:15:14.227Z,16.30
2023-04-28T03:17:43.293Z,16.40
2023-04-28T03:20:12.992Z,16.40
2023-04-28T03:22:41.317Z,16.30
2023-04-28T03:25:10.285Z,16.40
2023-04-28T03:27:39.963Z,16.30
2023-04-28T03:30:10.458Z,16.40
2023-04-28T03:32:38.893Z,16.40
2023-04-28T03:35:07.891Z,16.40
2023-04-28T03:37:36.144Z,16.60
2023-04-28T03:40:04.799Z,16.60
2023-04-28T03:42:33.113Z,16.50
2023-04-28T03:45:02.828Z,16.40
2023-04-28T03:47:31.194Z,16.30
2023-04-28T03:49:59.526Z,16.20
2023-04-28T03:52:28.078Z,16.10
2023-04-28T03:54:56.582Z,16.20
2023-04-28T03:57:24.848Z,16.00
2023-04-28T04:04:52.443Z,15.80
2023-04-28T04:22:14.545Z,15.30
2023-04-28T04:29:40.283Z,16.00
2023-04-28T04:32:08.517Z,16.30
2023-04-28T04:34:36.817Z,16.30
2023-04-28T04:37:06.658Z,16.40
2023-04-28T04:39:34.966Z,16.20
2023-04-28T04:42:16.748Z,15.80
2023-04-28T04:44:51.966Z,16.10
2023-04-28T04:47:20.288Z,16.20
2023-04-28T04:49:50.420Z,15.80
2023-04-28T04:52:20.048Z,15.50
2023-04-28T04:54:48.295Z,15.50
2023-04-28T04:57:16.636Z,15.60
2023-04-28T04:59:45.994Z,15.60
2023-04-28T05:02:14.383Z,15.50
2023-04-28T05:04:42.782Z,15.60
2023-04-28T05:07:11.234Z,15.50
2023-04-28T05:09:40.894Z,15.70
2023-04-28T05:12:09.302Z,15.80
2023-04-28T05:14:37.549Z,15.70
2023-04-28T05:17:06.149Z,16.00
2023-04-28T05:19:34.379Z,15.90
2023-04-28T05:22:02.676Z,15.70
2023-04-28T05:24:30.962Z,15.70
2023-04-28T05:27:01.740Z,15.80
2023-04-28T05:29:30.030Z,15.90
2023-04-28T05:31:58.375Z,16.20
2023-04-28T05:34:26.954Z,16.20
2023-04-28T05:36:55.248Z,15.60
2023-04-28T05:39:23.533Z,16.10
2023-04-28T05:41:51.846Z,16.40
2023-04-28T05:44:21.499Z,16.40
2023-04-28T05:46:49.817Z,16.40
2023-04-28T05:49:18.113Z,16.20
2023-04-28T05:51:46.441Z,16.20
2023-04-28T05:54:14.924Z,15.90
2023-04-28T05:56:43.415Z,16.30
2023-04-28T05:59:11.850Z,16.50
2023-04-28T06:01:41.678Z,16.20
2023-04-28T06:04:10.294Z,16.40
2023-04-28T06:06:38.983Z,16.60
2023-04-28T06:09:07.246Z,16.50
2023-04-28T06:11:35.586Z,16.10
2023-04-28T06:14:03.838Z,16.40
2023-04-28T06:16:32.267Z,16.70
2023-04-28T06:19:02.374Z,16.70
2023-04-28T06:21:32.358Z,16.80
2023-04-28T06:24:01.973Z,16.80
2023-04-28T06:26:30.984Z,16.90
2023-04-28T06:28:59.260Z,17.00
2023-04-28T06:31:27.553Z,17.10
2023-04-28T06:46:21.278Z,17.30
2023-04-28T06:48:49.557Z,16.50
2023-04-28T06:51:17.824Z,16.00
2023-04-28T06:56:16.138Z,15.80
2023-04-28T06:58:44.471Z,14.90
2023-04-28T07:01:12.791Z,14.90
2023-04-28T07:16:07.266Z,14.80
2023-04-28T07:18:35.582Z,13.80
2023-04-28T07:21:05.562Z,14.00
2023-04-28T07:23:34.150Z,14.00
2023-04-28T07:26:02.465Z,14.10
2023-04-28T07:28:32.112Z,13.50
2023-04-28T07:33:29.099Z,13.80
2023-04-28T07:35:57.457Z,14.50
2023-04-28T07:38:25.800Z,14.70
2023-04-28T07:45:52.623Z,15.10
2023-04-28T07:48:21.078Z,13.70
2023-04-28T07:50:49.421Z,14.50
2023-04-28T07:53:17.847Z,13.90
2023-04-28T07:55:46.241Z,14.30
2023-04-28T07:58:14.812Z,14.10
2023-04-28T08:00:43.124Z,14.00
2023-04-28T08:03:12.978Z,14.40
2023-04-28T08:05:41.459Z,14.10
2023-04-28T08:08:09.860Z,13.80
2023-04-28T08:10:40.524Z,14.20
2023-04-28T08:13:08.852Z,14.90
2023-04-28T08:15:37.194Z,14.80
2023-04-28T08:18:05.759Z,14.70
2023-04-28T08:20:35.533Z,14.50
2023-04-28T08:23:03.932Z,14.00
2023-04-28T08:35:27.025Z,14.80
2023-04-28T08:37:56.764Z,14.50
2023-04-28T08:42:57.282Z,15.00
2023-04-28T08:45:28.294Z,15.70
2023-04-28T08:47:57.820Z,15.20
2023-04-28T08:50:30.479Z,15.00
2023-04-28T08:53:02.677Z,15.10
2023-04-28T09:20:34.846Z,15.90
2023-04-28T09:48:31.963Z,15.60
2023-04-28T09:51:01.779Z,16.50
2023-04-28T09:53:31.401Z,15.60
2023-04-28T09:56:02.169Z,15.40
2023-04-28T09:58:33.046Z,15.50
2023-04-28T10:01:02.399Z,15.60
2023-04-28T10:13:27.224Z,16.00
2023-04-28T10:15:58.471Z,15.50
2023-04-28T10:18:27.759Z,15.90
2023-04-28T10:21:03.153Z,16.00
2023-04-28T10:24:14.503Z,15.80
2023-04-28T10:27:09.374Z,16.40
2023-04-28T11:02:51.121Z,15.60
2023-04-28T11:05:20.789Z,16.40
2023-04-28T11:08:34.619Z,15.90
2023-04-28T11:11:30.145Z,15.60
2023-04-28T11:14:35.891Z,16.00
2023-04-28T11:17:06.507Z,15.80
2023-04-28T11:19:37.762Z,15.70
2023-04-28T11:22:15.639Z,16.00
2023-04-28T11:29:56.904Z,16.10
2023-04-28T11:32:29.550Z,16.40
2023-04-28T11:37:27.250Z,17.10
2023-04-28T11:39:55.905Z,16.30
2023-04-28T11:42:25.975Z,16.30
2023-04-28T11:44:56.581Z,15.80
2023-04-28T11:47:32.783Z,15.90
2023-04-28T11:50:03.382Z,15.90
2023-04-28T11:52:31.863Z,16.00
2023-04-28T11:57:50.513Z,16.50
2023-04-28T11:59:21.558Z,15.80
2023-04-28T12:00:22.710Z,16.90
2023-04-28T12:02:51.780Z,16.80
2023-04-28T12:07:51.065Z,17.50
2023-04-28T12:12:52.638Z,18.70
2023-04-28T12:15:24.880Z,18.50
2023-04-28T12:17:53.327Z,17.80
2023-04-28T12:20:37.261Z,17.40
2023-04-28T12:23:06.147Z,17.70
2023-04-28T12:25:36.049Z,18.00
2023-04-28T12:28:07.785Z,18.70
2023-04-28T12:30:40.303Z,19.20
2023-04-28T12:33:24.969Z,19.10
2023-04-28T12:35:55.111Z,19.50
2023-04-28T12:38:23.709Z,19.70
2023-04-28T12:40:52.356Z,19.40
2023-04-28T12:43:23.107Z,19.10
2023-04-28T12:45:54.433Z,19.40
2023-04-28T12:48:23.865Z,19.30
2023-04-28T12:50:52.320Z,18.90
2023-04-28T12:53:20.777Z,18.60
2023-04-28T12:55:49.040Z,18.70
2023-04-28T12:58:17.960Z,19.10
2023-04-28T13:00:46.295Z,19.40
2023-04-28T13:03:16.386Z,19.60
2023-04-28T13:05:44.801Z,19.70
2023-04-28T13:08:14.041Z,19.40
2023-04-28T13:10:42.736Z,19.30
2023-04-28T13:13:10.991Z,19.10
2023-04-28T13:15:39.368Z,19.00
2023-04-28T13:18:07.763Z,19.20
2023-04-28T13:20:37.422Z,19.50
2023-04-28T13:23:05.940Z,19.30
2023-04-28T13:25:34.464Z,19.10
2023-04-28T13:28:03.044Z,18.80
2023-04-28T13:30:31.613Z,18.90
2023-04-28T13:33:00.016Z,19.00
2023-04-28T13:35:28.559Z,18.90
2023-04-28T13:38:02.006Z,18.60
2023-04-28T13:40:30.612Z,18.70
2023-04-28T13:42:58.905Z,18.90
2023-04-28T13:45:28.708Z,18.90
2023-04-28T13:47:57.064Z,18.80
2023-04-28T13:50:25.758Z,18.80
2023-04-28T13:52:54.160Z,19.10
2023-04-28T13:55:28.233Z,19.20
2023-04-28T13:57:56.643Z,19.50
2023-04-28T14:00:25.022Z,19.40
2023-04-28T14:02:53.525Z,19.50
2023-04-28T14:05:22.309Z,19.50
2023-04-28T14:07:50.607Z,19.20
2023-04-28T14:10:19.099Z,19.50
2023-04-28T14:12:48.877Z,19.60
2023-04-28T14:15:18.051Z,19.30
2023-04-28T14:17:46.637Z,19.20
2023-04-28T14:20:15.279Z,19.60
2023-04-28T14:22:43.525Z,20.10
2023-04-28T14:25:12.033Z,20.20
2023-04-28T14:27:40.426Z,19.60
2023-04-28T14:30:11.025Z,19.50
2023-04-28T14:32:40.092Z,19.40
2023-04-28T14:35:09.650Z,19.40
2023-04-28T14:37:38.048Z,19.30
2023-04-28T14:40:08.157Z,19.20
2023-04-28T14:42:37.784Z,18.90
2023-04-28T14:45:09.046Z,18.70
2023-04-28T14:47:40.373Z,18.70
2023-04-28T14:50:13.196Z,18.70
2023-04-28T14:52:42.570Z,18.90
2023-04-28T14:55:11.397Z,19.00
2023-04-28T14:57:40.084Z,18.80
2023-04-28T15:00:09.975Z,18.70
2023-04-28T15:02:39.845Z,18.60
2023-04-28T15:05:11.722Z,18.20
2023-04-28T15:07:40.180Z,18.40
2023-04-28T15:10:09.826Z,18.10
2023-04-28T15:12:38.159Z,18.10
2023-04-28T15:15:07.872Z,17.90
2023-04-28T15:17:36.215Z,17.80
2023-04-28T15:20:07.333Z,17.60
2023-04-28T15:22:36.446Z,17.40
2023-04-28T15:25:05.276Z,17.10
2023-04-28T15:27:33.567Z,17.20
2023-04-28T15:30:02.163Z,17.40
2023-04-28T15:32:31.714Z,16.90
2023-04-28T15:35:00.406Z,16.50
2023-04-28T15:37:44.600Z,16.70
2023-04-28T15:40:14.775Z,16.60
2023-04-28T15:42:48.784Z,17.00
2023-04-28T15:45:18.402Z,17.10
2023-04-28T15:47:49.438Z,17.40
2023-04-28T15:50:19.907Z,17.40
2023-04-28T15:52:51.276Z,17.30
2023-04-28T15:55:22.352Z,17.60
2023-04-28T15:57:52.430Z,17.90
2023-04-28T16:00:20.955Z,17.60
2023-04-28T16:02:49.384Z,17.40
2023-04-28T16:05:17.926Z,17.60
2023-04-28T16:07:46.315Z,17.90
2023-04-28T16:10:17.246Z,18.00
2023-04-28T16:12:45.715Z,17.40
2023-04-28T16:15:14.618Z,17.40
2023-04-28T16:17:44.415Z,17.40
2023-04-28T16:20:13.292Z,17.10
2023-04-28T16:22:42.694Z,17.20
2023-04-28T16:25:11.601Z,17.50
2023-04-28T16:27:42.633Z,17.50
2023-04-28T16:30:11.882Z,17.30
2023-04-28T16:32:41.025Z,17.40
2023-04-28T16:35:15.144Z,17.50
2023-04-28T16:37:44.619Z,17.60
2023-04-28T16:40:14.080Z,18.20
2023-04-28T16:42:45.161Z,17.70
2023-04-28T16:45:14.040Z,17.40
2023-04-28T16:47:43.822Z,17.30
2023-04-28T16:50:14.682Z,17.80
2023-04-28T16:52:43.168Z,17.90
2023-04-28T16:55:11.776Z,17.90
2023-04-28T16:57:40.072Z,18.00
2023-04-28T17:00:11.974Z,16.70
2023-04-28T17:02:40.368Z,17.00
2023-04-28T17:05:10.446Z,17.20
2023-04-28T17:07:38.764Z,17.50
2023-04-28T17:10:08.439Z,17.50
2023-04-28T17:12:36.775Z,17.40
2023-04-28T17:15:05.998Z,17.90
2023-04-28T17:17:35.734Z,17.50
2023-04-28T17:20:05.430Z,17.80
2023-04-28T17:22:34.842Z,17.50
2023-04-28T17:25:03.119Z,17.40
2023-04-28T17:27:31.628Z,17.10
2023-04-28T17:29:59.867Z,17.60
2023-04-28T17:32:28.637Z,17.30
2023-04-28T17:34:58.348Z,17.50
2023-04-28T17:37:27.381Z,17.80
2023-04-28T17:39:55.659Z,18.00
2023-04-28T17:42:23.982Z,18.00
2023-04-28T17:44:52.546Z,18.10
2023-04-28T17:47:21.070Z,17.50
2023-04-28T17:49:49.382Z,17.80
2023-04-28T17:52:19.002Z,18.00
2023-04-28T17:54:47.269Z,17.60
2023-04-28T17:57:15.674Z,18.10
2023-04-28T17:59:45.371Z,18.00
2023-04-28T18:02:13.998Z,18.10
2023-04-28T18:04:42.376Z,17.50
2023-04-28T18:07:10.671Z,17.50
2023-04-28T18:09:40.323Z,16.70
2023-04-28T18:12:08.698Z,17.30
2023-04-28T18:14:37.029Z,17.40
2023-04-28T18:17:05.344Z,16.60
2023-04-28T18:19:33.701Z,16.90
2023-04-28T18:22:01.989Z,17.40
2023-04-28T18:24:30.229Z,17.90
2023-04-28T18:26:59.942Z,18.20
2023-04-28T18:29:28.395Z,17.40
2023-04-28T18:31:56.676Z,17.30
2023-04-28T18:34:25.309Z,17.70
2023-04-28T18:36:53.557Z,18.30
2023-04-28T18:39:22.888Z,17.30
2023-04-28T18:41:51.149Z,17.80
2023-04-28T18:44:20.859Z,16.90
2023-04-28T18:46:49.208Z,17.30
2023-04-28T18:49:17.493Z,17.10
2023-04-28T18:51:45.841Z,16.60
2023-04-28T18:54:16.295Z,17.40
2023-04-28T18:56:44.685Z,16.60
2023-04-28T18:59:12.978Z,17.10
2023-04-28T19:01:42.637Z,17.60
2023-04-28T19:04:11.399Z,17.10
2023-04-28T19:06:40.054Z,17.30
2023-04-28T19:09:08.630Z,17.80
2023-04-28T19:11:36.982Z,17.70
2023-04-28T19:14:05.362Z,17.60
2023-04-28T19:16:33.670Z,18.10
2023-04-28T19:19:03.426Z,18.30
2023-04-28T19:21:31.669Z,18.60
2023-04-28T19:23:59.969Z,18.70
2023-04-28T19:26:28.268Z,18.60
2023-04-28T19:28:56.638Z,18.90
2023-04-28T19:31:24.981Z,18.00
2023-04-28T19:33:53.476Z,18.00
2023-04-28T19:36:23.608Z,17.10
2023-04-28T19:38:53.111Z,18.10
2023-04-28T19:41:21.518Z,17.60
2023-04-28T19:43:49.858Z,18.20
2023-04-28T19:46:18.184Z,18.40
2023-04-28T19:48:47.194Z,17.50
2023-04-28T19:51:16.940Z,17.30
2023-04-28T19:53:48.774Z,17.80
2023-04-28T19:56:17.072Z,18.20
2023-04-28T19:58:45.319Z,18.30
2023-04-28T20:01:13.620Z,18.40
2023-04-28T20:03:42.088Z,18.40
2023-04-28T20:06:15.564Z,18.80
2023-04-28T20:08:43.946Z,18.70
2023-04-28T20:11:14.273Z,18.40
2023-04-28T20:13:42.716Z,18.60
2023-04-28T20:16:11.870Z,18.30
2023-04-28T20:18:40.217Z,18.50
2023-04-28T20:21:09.866Z,18.10
2023-04-28T20:23:38.368Z,17.50
2023-04-28T20:26:06.776Z,17.60
2023-04-28T20:28:36.524Z,17.50
2023-04-28T20:31:08.761Z,17.90
2023-04-28T20:33:37.498Z,17.50
2023-04-28T20:36:06.056Z,17.10
2023-04-28T20:38:34.599Z,17.50
2023-04-28T20:41:04.783Z,17.50
2023-04-28T20:43:33.543Z,18.10
2023-04-28T20:46:03.630Z,18.30
2023-04-28T20:48:32.026Z,18.30
2023-04-28T20:51:03.639Z,17.50
2023-04-28T20:53:33.035Z,16.50
2023-04-28T20:56:01.524Z,16.30
2023-04-28T20:58:30.982Z,16.40
2023-04-28T21:00:59.295Z,16.70
2023-04-28T21:03:29.810Z,17.40
2023-04-28T21:05:58.184Z,17.40
2023-04-28T21:08:26.730Z,17.60
2023-04-28T21:10:55.512Z,17.00
2023-04-28T21:13:23.791Z,17.00
2023-04-28T21:15:52.290Z,17.70
2023-04-28T21:18:20.577Z,18.00
2023-04-28T21:20:51.158Z,18.00
2023-04-28T21:23:19.687Z,17.50
2023-04-28T21:25:47.989Z,17.50
2023-04-28T21:28:16.974Z,17.00
2023-04-28T21:30:45.250Z,16.80
2023-04-28T21:33:14.259Z,16.00
2023-04-28T21:35:42.573Z,16.60
2023-04-28T21:38:12.281Z,16.60
2023-04-28T21:40:40.562Z,16.50
2023-04-28T21:43:08.799Z,16.60
2023-04-28T21:45:37.125Z,16.60
2023-04-28T21:48:07.832Z,17.00
2023-04-28T21:50:36.824Z,17.40
2023-04-28T21:53:05.264Z,17.70
2023-04-28T21:55:34.956Z,17.80
2023-04-28T21:58:03.229Z,17.80
2023-04-28T22:00:31.526Z,18.10
2023-04-28T22:03:00.249Z,16.90
2023-04-28T22:05:29.219Z,16.90
2023-04-28T22:07:57.608Z,16.30
2023-04-28T22:10:26.005Z,17.30
2023-04-28T22:12:55.649Z,17.50
2023-04-28T22:15:23.941Z,17.50
2023-04-28T22:17:52.278Z,18.10
2023-04-28T22:20:20.570Z,18.20
2023-04-28T22:22:48.806Z,18.20
2023-04-28T22:25:17.411Z,18.60
2023-04-28T22:27:45.699Z,18.50
2023-04-28T22:30:15.877Z,18.30
2023-04-28T22:32:47.003Z,18.70
2023-04-28T22:35:16.828Z,18.40
2023-04-28T22:37:45.367Z,17.60
2023-04-28T22:40:13.862Z,16.40
2023-04-28T22:42:43.463Z,16.70
2023-04-28T22:45:14.231Z,16.10
2023-04-28T22:47:43.120Z,16.10
2023-04-28T22:50:12.568Z,16.10
2023-04-28T22:52:40.876Z,16.30
2023-04-28T22:55:09.947Z,15.80
2023-04-28T22:57:38.281Z,16.00
2023-04-28T23:00:08.169Z,16.90
2023-04-28T23:02:38.045Z,17.20
2023-04-28T23:05:07.468Z,16.30
2023-04-28T23:07:36.020Z,16.70
2023-04-28T23:10:05.091Z,17.70
2023-04-28T23:12:33.627Z,17.50
2023-04-28T23:20:00.746Z,18.10
2023-04-28T23:22:29.057Z,17.80
2023-04-28T23:24:57.330Z,17.70
2023-04-28T23:27:25.617Z,18.40
2023-04-28T23:29:54.193Z,18.50
2023-04-28T23:32:22.789Z,17.60
2023-04-28T23:34:51.041Z,18.20
2023-04-28T23:37:20.783Z,18.50
2023-04-28T23:39:49.192Z,18.60
2023-04-28T23:42:17.567Z,17.90
2023-04-28T23:44:45.810Z,17.90
2023-04-28T23:47:14.599Z,18.40
2023-04-28T23:49:42.870Z,18.60
2023-04-28T23:52:11.199Z,18.50
2023-04-28T23:54:41.379Z,18.00
2023-04-28T23:57:09.645Z,17.20
2023-04-28T23:59:37.907Z,17.00
